sensor_id;sensor_type;location;lat;lon;timestamp;P1;durP1;ratioP1;P2;durP2;ratioP2
38901;SDS011;24661;53.566;9.910;2023-04-03T00:00:13;5.30;;;1.80;;
38901;SDS011;24661;53.566;9.910;2023-04-03T00:02:39;7.47;;;2.43;;
38901;SDS011;24661;53.566;9.910;2023-04-03T00:05:06;5.63;;;2.27;;
38901;SDS011;24661;53.566;9.910;2023-04-03T00:07:32;7.33;;;2.90;;
38901;SDS011;24661;53.566;9.910;2023-04-03T00:09:57;12.37;;;2.20;;
38901;SDS011;24661;53.566;9.910;2023-04-03T00:12:23;7.27;;;1.80;;
38901;SDS011;24661;53.566;9.910;2023-04-03T00:14:50;8.00;;;2.17;;
38901;SDS011;24661;53.566;9.910;2023-04-03T00:17:16;4.73;;;2.20;;
38901;SDS011;24661;53.566;9.910;2023-04-03T00:19:42;7.20;;;2.07;;
38901;SDS011;24661;53.566;9.910;2023-04-03T00:22:08;7.87;;;2.70;;
38901;SDS011;24661;53.566;9.910;2023-04-03T00:24:33;6.83;;;2.53;;
38901;SDS011;24661;53.566;9.910;2023-04-03T00:26:59;4.67;;;2.10;;
38901;SDS011;24661;53.566;9.910;2023-04-03T00:29:25;7.70;;;2.57;;
38901;SDS011;24661;53.566;9.910;2023-04-03T00:31:50;9.17;;;3.50;;
38901;SDS011;24661;53.566;9.910;2023-04-03T00:34:16;5.67;;;2.20;;
38901;SDS011;24661;53.566;9.910;2023-04-03T00:36:42;9.53;;;2.17;;
38901;SDS011;24661;53.566;9.910;2023-04-03T00:39:07;9.37;;;3.20;;
38901;SDS011;24661;53.566;9.910;2023-04-03T00:41:33;10.23;;;2.47;;
38901;SDS011;24661;53.566;9.910;2023-04-03T00:43:58;10.53;;;2.90;;
38901;SDS011;24661;53.566;9.910;2023-04-03T00:46:24;9.67;;;2.53;;
38901;SDS011;24661;53.566;9.910;2023-04-03T00:48:50;8.97;;;2.53;;
38901;SDS011;24661;53.566;9.910;2023-04-03T00:51:20;11.43;;;2.93;;
38901;SDS011;24661;53.566;9.910;2023-04-03T00:53:50;4.10;;;1.73;;
38901;SDS011;24661;53.566;9.910;2023-04-03T00:56:20;4.63;;;2.43;;
38901;SDS011;24661;53.566;9.910;2023-04-03T00:58:50;4.20;;;2.20;;
38901;SDS011;24661;53.566;9.910;2023-04-03T01:01:25;9.17;;;2.23;;
38901;SDS011;24661;53.566;9.910;2023-04-03T01:03:52;7.00;;;2.40;;
38901;SDS011;24661;53.566;9.910;2023-04-03T01:06:20;9.43;;;2.97;;
38901;SDS011;24661;53.566;9.910;2023-04-03T01:08:49;11.23;;;1.93;;
38901;SDS011;24661;53.566;9.910;2023-04-03T01:11:16;7.33;;;2.97;;
38901;SDS011;24661;53.566;9.910;2023-04-03T01:13:42;9.60;;;2.67;;
38901;SDS011;24661;53.566;9.910;2023-04-03T01:16:08;9.60;;;2.87;;
38901;SDS011;24661;53.566;9.910;2023-04-03T01:18:34;8.23;;;2.33;;
38901;SDS011;24661;53.566;9.910;2023-04-03T01:21:08;9.30;;;2.90;;
38901;SDS011;24661;53.566;9.910;2023-04-03T01:26:30;5.90;;;2.23;;
38901;SDS011;24661;53.566;9.910;2023-04-03T01:28:58;13.43;;;4.60;;
38901;SDS011;24661;53.566;9.910;2023-04-03T01:31:26;8.40;;;2.50;;
38901;SDS011;24661;53.566;9.910;2023-04-03T01:33:55;10.80;;;2.23;;
38901;SDS011;24661;53.566;9.910;2023-04-03T01:36:22;7.97;;;3.30;;
38901;SDS011;24661;53.566;9.910;2023-04-03T01:38:49;7.23;;;2.30;;
38901;SDS011;24661;53.566;9.910;2023-04-03T01:41:15;9.30;;;2.60;;
38901;SDS011;24661;53.566;9.910;2023-04-03T01:43:41;10.70;;;3.30;;
38901;SDS011;24661;53.566;9.910;2023-04-03T01:46:07;8.50;;;3.10;;
38901;SDS011;24661;53.566;9.910;2023-04-03T01:48:33;9.57;;;2.87;;
38901;SDS011;24661;53.566;9.910;2023-04-03T01:50:59;5.33;;;3.03;;
38901;SDS011;24661;53.566;9.910;2023-04-03T01:53:25;5.83;;;2.37;;
38901;SDS011;24661;53.566;9.910;2023-04-03T01:55:51;7.23;;;2.60;;
38901;SDS011;24661;53.566;9.910;2023-04-03T01:58:16;4.87;;;2.50;;
38901;SDS011;24661;53.566;9.910;2023-04-03T02:00:42;7.53;;;2.70;;
38901;SDS011;24661;53.566;9.910;2023-04-03T02:03:08;3.60;;;1.90;;
38901;SDS011;24661;53.566;9.910;2023-04-03T02:05:33;5.43;;;2.20;;
38901;SDS011;24661;53.566;9.910;2023-04-03T02:07:59;9.10;;;2.70;;
38901;SDS011;24661;53.566;9.910;2023-04-03T02:10:25;8.03;;;2.53;;
38901;SDS011;24661;53.566;9.910;2023-04-03T02:12:51;5.50;;;2.47;;
38901;SDS011;24661;53.566;9.910;2023-04-03T02:15:17;8.80;;;2.40;;
38901;SDS011;24661;53.566;9.910;2023-04-03T02:17:43;11.13;;;2.50;;
38901;SDS011;24661;53.566;9.910;2023-04-03T02:20:09;7.17;;;2.50;;
38901;SDS011;24661;53.566;9.910;2023-04-03T02:22:35;5.67;;;2.30;;
38901;SDS011;24661;53.566;9.910;2023-04-03T02:25:01;7.17;;;3.00;;
38901;SDS011;24661;53.566;9.910;2023-04-03T02:27:26;4.67;;;2.07;;
38901;SDS011;24661;53.566;9.910;2023-04-03T02:29:52;11.67;;;2.60;;
38901;SDS011;24661;53.566;9.910;2023-04-03T02:32:18;7.93;;;2.83;;
38901;SDS011;24661;53.566;9.910;2023-04-03T02:34:43;6.50;;;2.87;;
38901;SDS011;24661;53.566;9.910;2023-04-03T02:37:09;8.60;;;2.57;;
38901;SDS011;24661;53.566;9.910;2023-04-03T02:39:35;6.90;;;2.80;;
38901;SDS011;24661;53.566;9.910;2023-04-03T02:42:01;6.00;;;2.27;;
38901;SDS011;24661;53.566;9.910;2023-04-03T02:44:27;7.80;;;2.40;;
38901;SDS011;24661;53.566;9.910;2023-04-03T02:46:53;8.83;;;2.87;;
38901;SDS011;24661;53.566;9.910;2023-04-03T02:49:18;6.63;;;2.50;;
38901;SDS011;24661;53.566;9.910;2023-04-03T02:51:44;8.23;;;2.30;;
38901;SDS011;24661;53.566;9.910;2023-04-03T02:54:10;8.77;;;2.43;;
38901;SDS011;24661;53.566;9.910;2023-04-03T02:56:36;5.43;;;2.00;;
38901;SDS011;24661;53.566;9.910;2023-04-03T02:59:02;8.70;;;2.33;;
38901;SDS011;24661;53.566;9.910;2023-04-03T03:01:28;3.53;;;2.83;;
38901;SDS011;24661;53.566;9.910;2023-04-03T03:03:56;5.57;;;1.90;;
38901;SDS011;24661;53.566;9.910;2023-04-03T03:06:23;8.17;;;2.50;;
38901;SDS011;24661;53.566;9.910;2023-04-03T03:08:49;6.40;;;2.20;;
38901;SDS011;24661;53.566;9.910;2023-04-03T03:11:14;10.07;;;3.17;;
38901;SDS011;24661;53.566;9.910;2023-04-03T03:13:40;6.27;;;2.67;;
38901;SDS011;24661;53.566;9.910;2023-04-03T03:16:05;8.33;;;3.10;;
38901;SDS011;24661;53.566;9.910;2023-04-03T03:18:32;9.70;;;3.23;;
38901;SDS011;24661;53.566;9.910;2023-04-03T03:20:59;6.10;;;2.33;;
38901;SDS011;24661;53.566;9.910;2023-04-03T03:23:27;7.50;;;2.93;;
38901;SDS011;24661;53.566;9.910;2023-04-03T03:25:57;6.10;;;2.20;;
38901;SDS011;24661;53.566;9.910;2023-04-03T03:28:24;8.63;;;4.00;;
38901;SDS011;24661;53.566;9.910;2023-04-03T03:30:51;6.80;;;2.47;;
38901;SDS011;24661;53.566;9.910;2023-04-03T03:33:17;8.07;;;2.47;;
38901;SDS011;24661;53.566;9.910;2023-04-03T03:35:43;5.70;;;2.77;;
38901;SDS011;24661;53.566;9.910;2023-04-03T03:38:10;7.70;;;2.90;;
38901;SDS011;24661;53.566;9.910;2023-04-03T03:40:36;8.10;;;2.87;;
38901;SDS011;24661;53.566;9.910;2023-04-03T03:43:02;6.97;;;3.07;;
38901;SDS011;24661;53.566;9.910;2023-04-03T03:45:27;15.43;;;2.60;;
38901;SDS011;24661;53.566;9.910;2023-04-03T03:47:53;17.00;;;3.90;;
38901;SDS011;24661;53.566;9.910;2023-04-03T03:50:19;10.00;;;3.50;;
38901;SDS011;24661;53.566;9.910;2023-04-03T03:52:45;11.50;;;3.60;;
38901;SDS011;24661;53.566;9.910;2023-04-03T03:55:11;8.63;;;3.43;;
38901;SDS011;24661;53.566;9.910;2023-04-03T03:57:37;13.07;;;3.53;;
38901;SDS011;24661;53.566;9.910;2023-04-03T04:00:03;9.13;;;2.63;;
38901;SDS011;24661;53.566;9.910;2023-04-03T04:02:30;10.53;;;2.87;;
38901;SDS011;24661;53.566;9.910;2023-04-03T04:04:56;8.13;;;2.77;;
38901;SDS011;24661;53.566;9.910;2023-04-03T04:07:22;12.23;;;3.50;;
38901;SDS011;24661;53.566;9.910;2023-04-03T04:09:48;11.13;;;3.97;;
38901;SDS011;24661;53.566;9.910;2023-04-03T04:12:14;10.37;;;4.30;;
38901;SDS011;24661;53.566;9.910;2023-04-03T04:14:40;8.33;;;3.40;;
38901;SDS011;24661;53.566;9.910;2023-04-03T04:17:06;13.37;;;3.90;;
38901;SDS011;24661;53.566;9.910;2023-04-03T04:19:32;8.57;;;3.67;;
38901;SDS011;24661;53.566;9.910;2023-04-03T04:21:58;13.47;;;2.80;;
38901;SDS011;24661;53.566;9.910;2023-04-03T04:24:23;7.83;;;2.60;;
38901;SDS011;24661;53.566;9.910;2023-04-03T04:26:49;7.43;;;2.53;;
38901;SDS011;24661;53.566;9.910;2023-04-03T04:29:15;7.87;;;3.00;;
38901;SDS011;24661;53.566;9.910;2023-04-03T04:31:40;7.40;;;3.23;;
38901;SDS011;24661;53.566;9.910;2023-04-03T04:34:06;12.93;;;4.47;;
38901;SDS011;24661;53.566;9.910;2023-04-03T04:36:32;12.20;;;3.87;;
38901;SDS011;24661;53.566;9.910;2023-04-03T04:38:58;6.47;;;3.47;;
38901;SDS011;24661;53.566;9.910;2023-04-03T04:41:23;6.03;;;2.90;;
38901;SDS011;24661;53.566;9.910;2023-04-03T04:43:49;12.10;;;3.73;;
38901;SDS011;24661;53.566;9.910;2023-04-03T04:46:16;8.27;;;3.43;;
38901;SDS011;24661;53.566;9.910;2023-04-03T04:48:42;10.47;;;3.90;;
38901;SDS011;24661;53.566;9.910;2023-04-03T04:51:08;9.70;;;4.03;;
38901;SDS011;24661;53.566;9.910;2023-04-03T04:53:34;7.03;;;2.87;;
38901;SDS011;24661;53.566;9.910;2023-04-03T04:56:00;13.97;;;3.80;;
38901;SDS011;24661;53.566;9.910;2023-04-03T04:58:25;12.67;;;4.87;;
38901;SDS011;24661;53.566;9.910;2023-04-03T05:01:01;8.67;;;3.20;;
38901;SDS011;24661;53.566;9.910;2023-04-03T05:03:28;10.97;;;3.90;;
38901;SDS011;24661;53.566;9.910;2023-04-03T05:05:54;13.57;;;2.93;;
38901;SDS011;24661;53.566;9.910;2023-04-03T05:08:20;8.13;;;2.93;;
38901;SDS011;24661;53.566;9.910;2023-04-03T05:10:46;11.63;;;2.83;;
38901;SDS011;24661;53.566;9.910;2023-04-03T05:13:12;8.07;;;2.67;;
38901;SDS011;24661;53.566;9.910;2023-04-03T05:15:39;7.17;;;2.77;;
38901;SDS011;24661;53.566;9.910;2023-04-03T05:18:05;9.17;;;4.97;;
38901;SDS011;24661;53.566;9.910;2023-04-03T05:20:32;19.60;;;2.20;;
38901;SDS011;24661;53.566;9.910;2023-04-03T05:22:57;15.27;;;3.63;;
38901;SDS011;24661;53.566;9.910;2023-04-03T05:25:23;9.53;;;2.90;;
38901;SDS011;24661;53.566;9.910;2023-04-03T05:27:49;8.23;;;2.70;;
38901;SDS011;24661;53.566;9.910;2023-04-03T05:30:16;13.10;;;3.00;;
38901;SDS011;24661;53.566;9.910;2023-04-03T05:32:42;7.07;;;2.63;;
38901;SDS011;24661;53.566;9.910;2023-04-03T05:35:08;13.20;;;3.03;;
38901;SDS011;24661;53.566;9.910;2023-04-03T05:37:34;8.37;;;3.63;;
38901;SDS011;24661;53.566;9.910;2023-04-03T05:40:00;7.20;;;2.00;;
38901;SDS011;24661;53.566;9.910;2023-04-03T05:42:26;8.27;;;2.90;;
38901;SDS011;24661;53.566;9.910;2023-04-03T05:44:52;12.20;;;3.10;;
38901;SDS011;24661;53.566;9.910;2023-04-03T05:47:18;12.53;;;2.63;;
38901;SDS011;24661;53.566;9.910;2023-04-03T05:49:44;5.90;;;2.87;;
38901;SDS011;24661;53.566;9.910;2023-04-03T05:52:13;11.47;;;4.17;;
38901;SDS011;24661;53.566;9.910;2023-04-03T05:54:45;9.70;;;4.03;;
38901;SDS011;24661;53.566;9.910;2023-04-03T05:57:13;7.63;;;2.87;;
38901;SDS011;24661;53.566;9.910;2023-04-03T05:59:41;8.40;;;3.70;;
38901;SDS011;24661;53.566;9.910;2023-04-03T06:02:09;10.13;;;3.13;;
38901;SDS011;24661;53.566;9.910;2023-04-03T06:04:37;10.87;;;3.43;;
38901;SDS011;24661;53.566;9.910;2023-04-03T06:07:03;6.47;;;2.77;;
38901;SDS011;24661;53.566;9.910;2023-04-03T06:09:29;15.63;;;4.23;;
38901;SDS011;24661;53.566;9.910;2023-04-03T06:11:55;7.67;;;3.23;;
38901;SDS011;24661;53.566;9.910;2023-04-03T06:14:24;11.20;;;3.40;;
38901;SDS011;24661;53.566;9.910;2023-04-03T06:16:51;12.03;;;4.47;;
38901;SDS011;24661;53.566;9.910;2023-04-03T06:19:17;10.77;;;6.03;;
38901;SDS011;24661;53.566;9.910;2023-04-03T06:21:43;8.77;;;4.30;;
38901;SDS011;24661;53.566;9.910;2023-04-03T06:24:09;6.23;;;2.87;;
38901;SDS011;24661;53.566;9.910;2023-04-03T06:26:39;9.73;;;2.77;;
38901;SDS011;24661;53.566;9.910;2023-04-03T06:29:05;5.43;;;2.43;;
38901;SDS011;24661;53.566;9.910;2023-04-03T06:31:31;11.10;;;2.40;;
38901;SDS011;24661;53.566;9.910;2023-04-03T06:33:57;7.87;;;3.00;;
38901;SDS011;24661;53.566;9.910;2023-04-03T06:36:22;9.60;;;2.33;;
38901;SDS011;24661;53.566;9.910;2023-04-03T06:38:48;8.97;;;2.20;;
38901;SDS011;24661;53.566;9.910;2023-04-03T06:41:14;6.00;;;2.07;;
38901;SDS011;24661;53.566;9.910;2023-04-03T06:43:41;4.40;;;2.07;;
38901;SDS011;24661;53.566;9.910;2023-04-03T06:46:12;10.00;;;2.40;;
38901;SDS011;24661;53.566;9.910;2023-04-03T06:48:41;7.13;;;2.47;;
38901;SDS011;24661;53.566;9.910;2023-04-03T06:51:16;4.67;;;2.10;;
38901;SDS011;24661;53.566;9.910;2023-04-03T06:53:50;7.57;;;1.80;;
38901;SDS011;24661;53.566;9.910;2023-04-03T06:56:18;5.83;;;2.13;;
38901;SDS011;24661;53.566;9.910;2023-04-03T06:58:44;6.07;;;1.90;;
38901;SDS011;24661;53.566;9.910;2023-04-03T07:01:12;8.17;;;2.47;;
38901;SDS011;24661;53.566;9.910;2023-04-03T07:03:39;6.17;;;2.00;;
38901;SDS011;24661;53.566;9.910;2023-04-03T07:06:06;5.80;;;2.10;;
38901;SDS011;24661;53.566;9.910;2023-04-03T07:08:34;7.00;;;2.43;;
38901;SDS011;24661;53.566;9.910;2023-04-03T07:11:00;4.60;;;2.03;;
38901;SDS011;24661;53.566;9.910;2023-04-03T07:13:26;4.27;;;1.73;;
38901;SDS011;24661;53.566;9.910;2023-04-03T07:15:52;4.70;;;2.73;;
38901;SDS011;24661;53.566;9.910;2023-04-03T07:18:18;4.70;;;1.60;;
38901;SDS011;24661;53.566;9.910;2023-04-03T07:20:44;6.53;;;1.77;;
38901;SDS011;24661;53.566;9.910;2023-04-03T07:23:10;8.40;;;2.30;;
38901;SDS011;24661;53.566;9.910;2023-04-03T07:25:36;4.97;;;1.53;;
38901;SDS011;24661;53.566;9.910;2023-04-03T07:28:07;4.20;;;1.53;;
38901;SDS011;24661;53.566;9.910;2023-04-03T07:30:33;5.07;;;2.03;;
38901;SDS011;24661;53.566;9.910;2023-04-03T07:32:59;5.93;;;1.50;;
38901;SDS011;24661;53.566;9.910;2023-04-03T07:35:24;5.17;;;2.17;;
38901;SDS011;24661;53.566;9.910;2023-04-03T07:37:50;4.40;;;1.77;;
38901;SDS011;24661;53.566;9.910;2023-04-03T07:40:16;6.53;;;1.73;;
38901;SDS011;24661;53.566;9.910;2023-04-03T07:42:41;3.40;;;1.50;;
38901;SDS011;24661;53.566;9.910;2023-04-03T07:45:07;4.93;;;1.60;;
38901;SDS011;24661;53.566;9.910;2023-04-03T07:47:33;6.27;;;1.37;;
38901;SDS011;24661;53.566;9.910;2023-04-03T07:49:59;4.60;;;1.80;;
38901;SDS011;24661;53.566;9.910;2023-04-03T07:52:24;4.50;;;1.30;;
38901;SDS011;24661;53.566;9.910;2023-04-03T07:54:50;4.27;;;1.20;;
38901;SDS011;24661;53.566;9.910;2023-04-03T07:57:16;3.23;;;1.00;;
38901;SDS011;24661;53.566;9.910;2023-04-03T07:59:42;2.77;;;0.97;;
38901;SDS011;24661;53.566;9.910;2023-04-03T08:02:11;3.40;;;1.20;;
38901;SDS011;24661;53.566;9.910;2023-04-03T08:04:37;3.90;;;1.13;;
38901;SDS011;24661;53.566;9.910;2023-04-03T08:07:03;5.90;;;1.30;;
38901;SDS011;24661;53.566;9.910;2023-04-03T08:09:29;5.33;;;1.30;;
38901;SDS011;24661;53.566;9.910;2023-04-03T08:11:56;4.23;;;1.17;;
38901;SDS011;24661;53.566;9.910;2023-04-03T08:14:23;4.03;;;1.40;;
38901;SDS011;24661;53.566;9.910;2023-04-03T08:16:49;3.23;;;1.13;;
38901;SDS011;24661;53.566;9.910;2023-04-03T08:19:15;3.13;;;1.00;;
38901;SDS011;24661;53.566;9.910;2023-04-03T08:21:42;8.63;;;1.70;;
38901;SDS011;24661;53.566;9.910;2023-04-03T08:24:08;1.83;;;1.13;;
38901;SDS011;24661;53.566;9.910;2023-04-03T08:26:35;4.80;;;1.43;;
38901;SDS011;24661;53.566;9.910;2023-04-03T08:29:00;6.57;;;1.77;;
38901;SDS011;24661;53.566;9.910;2023-04-03T08:31:27;3.37;;;1.33;;
38901;SDS011;24661;53.566;9.910;2023-04-03T08:33:53;5.13;;;1.27;;
38901;SDS011;24661;53.566;9.910;2023-04-03T08:36:21;4.17;;;1.57;;
38901;SDS011;24661;53.566;9.910;2023-04-03T08:38:48;2.43;;;1.10;;
38901;SDS011;24661;53.566;9.910;2023-04-03T08:41:34;6.43;;;1.10;;
38901;SDS011;24661;53.566;9.910;2023-04-03T08:44:02;6.17;;;1.60;;
38901;SDS011;24661;53.566;9.910;2023-04-03T08:47:24;3.53;;;1.10;;
38901;SDS011;24661;53.566;9.910;2023-04-03T08:49:49;2.90;;;1.20;;
38901;SDS011;24661;53.566;9.910;2023-04-03T08:52:20;2.03;;;1.00;;
38901;SDS011;24661;53.566;9.910;2023-04-03T08:54:52;4.23;;;1.17;;
38901;SDS011;24661;53.566;9.910;2023-04-03T08:57:40;7.80;;;1.40;;
38901;SDS011;24661;53.566;9.910;2023-04-03T09:00:18;5.23;;;1.20;;
38901;SDS011;24661;53.566;9.910;2023-04-03T09:02:46;2.87;;;1.47;;
38901;SDS011;24661;53.566;9.910;2023-04-03T09:05:14;2.83;;;1.40;;
38901;SDS011;24661;53.566;9.910;2023-04-03T09:08:23;5.00;;;1.70;;
38901;SDS011;24661;53.566;9.910;2023-04-03T09:11:44;4.83;;;0.90;;
38901;SDS011;24661;53.566;9.910;2023-04-03T09:16:36;2.87;;;0.87;;
38901;SDS011;24661;53.566;9.910;2023-04-03T09:19:22;3.07;;;1.40;;
38901;SDS011;24661;53.566;9.910;2023-04-03T09:21:58;4.13;;;1.13;;
38901;SDS011;24661;53.566;9.910;2023-04-03T09:24:28;1.83;;;0.93;;
38901;SDS011;24661;53.566;9.910;2023-04-03T09:26:59;4.03;;;1.10;;
38901;SDS011;24661;53.566;9.910;2023-04-03T09:29:33;2.23;;;1.00;;
38901;SDS011;24661;53.566;9.910;2023-04-03T09:32:11;1.13;;;0.80;;
38901;SDS011;24661;53.566;9.910;2023-04-03T09:34:51;4.53;;;1.10;;
38901;SDS011;24661;53.566;9.910;2023-04-03T09:37:37;3.10;;;2.00;;
38901;SDS011;24661;53.566;9.910;2023-04-03T09:45:42;5.43;;;1.77;;
38901;SDS011;24661;53.566;9.910;2023-04-03T09:50:38;3.60;;;1.43;;
38901;SDS011;24661;53.566;9.910;2023-04-03T09:56:02;2.83;;;1.37;;
38901;SDS011;24661;53.566;9.910;2023-04-03T09:58:40;2.73;;;0.90;;
38901;SDS011;24661;53.566;9.910;2023-04-03T10:04:36;1.60;;;0.97;;
38901;SDS011;24661;53.566;9.910;2023-04-03T10:07:04;2.73;;;1.03;;
38901;SDS011;24661;53.566;9.910;2023-04-03T10:10:25;1.40;;;0.63;;
38901;SDS011;24661;53.566;9.910;2023-04-03T10:12:47;4.27;;;0.90;;
38901;SDS011;24661;53.566;9.910;2023-04-03T10:15:14;1.73;;;0.90;;
38901;SDS011;24661;53.566;9.910;2023-04-03T10:17:50;6.90;;;2.60;;
38901;SDS011;24661;53.566;9.910;2023-04-03T10:20:26;1.20;;;0.70;;
38901;SDS011;24661;53.566;9.910;2023-04-03T10:28:22;4.80;;;1.00;;
38901;SDS011;24661;53.566;9.910;2023-04-03T10:33:49;5.53;;;1.03;;
38901;SDS011;24661;53.566;9.910;2023-04-03T10:36:29;2.70;;;0.90;;
38901;SDS011;24661;53.566;9.910;2023-04-03T10:41:59;1.53;;;1.00;;
38901;SDS011;24661;53.566;9.910;2023-04-03T10:47:01;3.70;;;1.00;;
38901;SDS011;24661;53.566;9.910;2023-04-03T10:49:47;2.57;;;0.90;;
38901;SDS011;24661;53.566;9.910;2023-04-03T10:54:56;2.27;;;0.90;;
38901;SDS011;24661;53.566;9.910;2023-04-03T10:57:32;1.80;;;0.80;;
38901;SDS011;24661;53.566;9.910;2023-04-03T11:00:04;7.90;;;1.07;;
38901;SDS011;24661;53.566;9.910;2023-04-03T11:03:17;2.03;;;0.93;;
38901;SDS011;24661;53.566;9.910;2023-04-03T11:08:08;2.17;;;1.10;;
38901;SDS011;24661;53.566;9.910;2023-04-03T11:10:51;1.67;;;1.00;;
38901;SDS011;24661;53.566;9.910;2023-04-03T11:13:24;2.00;;;0.90;;
38901;SDS011;24661;53.566;9.910;2023-04-03T11:15:53;3.30;;;0.80;;
38901;SDS011;24661;53.566;9.910;2023-04-03T11:21:19;4.33;;;1.20;;
38901;SDS011;24661;53.566;9.910;2023-04-03T11:23:48;3.07;;;1.77;;
38901;SDS011;24661;53.566;9.910;2023-04-03T11:26:19;4.33;;;1.10;;
38901;SDS011;24661;53.566;9.910;2023-04-03T11:28:51;1.23;;;0.83;;
38901;SDS011;24661;53.566;9.910;2023-04-03T11:36:25;3.23;;;1.00;;
38901;SDS011;24661;53.566;9.910;2023-04-03T11:38:59;4.60;;;1.43;;
38901;SDS011;24661;53.566;9.910;2023-04-03T11:41:33;2.17;;;1.00;;
38901;SDS011;24661;53.566;9.910;2023-04-03T11:44:45;4.20;;;1.07;;
38901;SDS011;24661;53.566;9.910;2023-04-03T11:46:56;1.17;;;0.97;;
38901;SDS011;24661;53.566;9.910;2023-04-03T12:05:50;2.73;;;1.00;;
38901;SDS011;24661;53.566;9.910;2023-04-03T12:13:36;2.30;;;1.00;;
38901;SDS011;24661;53.566;9.910;2023-04-03T12:16:30;4.67;;;1.10;;
38901;SDS011;24661;53.566;9.910;2023-04-03T12:35:28;3.43;;;1.03;;
38901;SDS011;24661;53.566;9.910;2023-04-03T12:46:23;3.43;;;1.43;;
38901;SDS011;24661;53.566;9.910;2023-04-03T12:48:55;4.17;;;1.30;;
38901;SDS011;24661;53.566;9.910;2023-04-03T12:51:39;3.87;;;1.30;;
38901;SDS011;24661;53.566;9.910;2023-04-03T12:54:18;3.30;;;1.17;;
38901;SDS011;24661;53.566;9.910;2023-04-03T12:56:48;4.03;;;1.27;;
38901;SDS011;24661;53.566;9.910;2023-04-03T12:59:23;2.50;;;1.13;;
38901;SDS011;24661;53.566;9.910;2023-04-03T13:02:00;1.83;;;0.80;;
38901;SDS011;24661;53.566;9.910;2023-04-03T13:04:27;3.20;;;1.30;;
38901;SDS011;24661;53.566;9.910;2023-04-03T13:06:55;3.23;;;1.77;;
38901;SDS011;24661;53.566;9.910;2023-04-03T13:09:28;3.47;;;1.10;;
38901;SDS011;24661;53.566;9.910;2023-04-03T13:14:25;1.23;;;1.00;;
38901;SDS011;24661;53.566;9.910;2023-04-03T13:16:54;3.20;;;1.30;;
38901;SDS011;24661;53.566;9.910;2023-04-03T13:19:36;2.73;;;1.27;;
38901;SDS011;24661;53.566;9.910;2023-04-03T13:22:04;4.60;;;1.53;;
38901;SDS011;24661;53.566;9.910;2023-04-03T13:24:34;2.73;;;1.00;;
38901;SDS011;24661;53.566;9.910;2023-04-03T13:27:02;1.37;;;1.00;;
38901;SDS011;24661;53.566;9.910;2023-04-03T13:29:30;5.03;;;1.47;;
38901;SDS011;24661;53.566;9.910;2023-04-03T13:31:59;2.80;;;1.40;;
38901;SDS011;24661;53.566;9.910;2023-04-03T13:34:27;3.47;;;1.30;;
38901;SDS011;24661;53.566;9.910;2023-04-03T13:37:00;5.57;;;1.37;;
38901;SDS011;24661;53.566;9.910;2023-04-03T13:39:30;3.63;;;1.43;;
38901;SDS011;24661;53.566;9.910;2023-04-03T13:42:14;2.67;;;1.13;;
38901;SDS011;24661;53.566;9.910;2023-04-03T13:44:46;3.30;;;1.00;;
38901;SDS011;24661;53.566;9.910;2023-04-03T13:47:19;2.23;;;0.93;;
38901;SDS011;24661;53.566;9.910;2023-04-03T13:52:29;6.90;;;3.80;;
38901;SDS011;24661;53.566;9.910;2023-04-03T13:55:02;2.57;;;1.60;;
38901;SDS011;24661;53.566;9.910;2023-04-03T13:57:55;2.00;;;1.10;;
38901;SDS011;24661;53.566;9.910;2023-04-03T14:00:47;3.00;;;1.37;;
38901;SDS011;24661;53.566;9.910;2023-04-03T14:06:12;2.30;;;1.30;;
38901;SDS011;24661;53.566;9.910;2023-04-03T14:08:41;8.10;;;4.37;;
38901;SDS011;24661;53.566;9.910;2023-04-03T14:11:09;2.83;;;1.23;;
38901;SDS011;24661;53.566;9.910;2023-04-03T14:13:42;1.57;;;1.07;;
38901;SDS011;24661;53.566;9.910;2023-04-03T14:16:12;2.67;;;1.03;;
38901;SDS011;24661;53.566;9.910;2023-04-03T14:18:52;2.63;;;1.03;;
38901;SDS011;24661;53.566;9.910;2023-04-03T14:21:19;3.00;;;1.00;;
38901;SDS011;24661;53.566;9.910;2023-04-03T14:23:46;2.63;;;1.30;;
38901;SDS011;24661;53.566;9.910;2023-04-03T14:26:13;3.27;;;1.17;;
38901;SDS011;24661;53.566;9.910;2023-04-03T14:28:42;3.50;;;1.30;;
38901;SDS011;24661;53.566;9.910;2023-04-03T14:31:11;3.10;;;1.73;;
38901;SDS011;24661;53.566;9.910;2023-04-03T14:33:37;1.60;;;1.00;;
38901;SDS011;24661;53.566;9.910;2023-04-03T14:36:17;5.07;;;1.20;;
38901;SDS011;24661;53.566;9.910;2023-04-03T14:38:48;5.33;;;1.20;;
38901;SDS011;24661;53.566;9.910;2023-04-03T14:41:15;2.73;;;1.10;;
38901;SDS011;24661;53.566;9.910;2023-04-03T14:43:45;1.93;;;1.00;;
38901;SDS011;24661;53.566;9.910;2023-04-03T14:46:13;2.77;;;1.10;;
38901;SDS011;24661;53.566;9.910;2023-04-03T14:48:40;2.67;;;1.10;;
38901;SDS011;24661;53.566;9.910;2023-04-03T14:51:06;1.80;;;1.33;;
38901;SDS011;24661;53.566;9.910;2023-04-03T14:53:35;4.10;;;1.20;;
38901;SDS011;24661;53.566;9.910;2023-04-03T14:56:01;3.80;;;1.00;;
38901;SDS011;24661;53.566;9.910;2023-04-03T14:58:26;1.50;;;0.83;;
38901;SDS011;24661;53.566;9.910;2023-04-03T15:00:52;3.93;;;0.97;;
38901;SDS011;24661;53.566;9.910;2023-04-03T15:03:19;2.97;;;1.53;;
38901;SDS011;24661;53.566;9.910;2023-04-03T15:05:47;2.57;;;1.10;;
38901;SDS011;24661;53.566;9.910;2023-04-03T15:08:18;3.97;;;1.43;;
38901;SDS011;24661;53.566;9.910;2023-04-03T15:10:50;3.60;;;1.40;;
38901;SDS011;24661;53.566;9.910;2023-04-03T15:13:21;2.20;;;1.13;;
38901;SDS011;24661;53.566;9.910;2023-04-03T15:15:49;2.97;;;1.40;;
38901;SDS011;24661;53.566;9.910;2023-04-03T15:18:20;3.80;;;1.33;;
38901;SDS011;24661;53.566;9.910;2023-04-03T15:20:51;3.13;;;1.20;;
38901;SDS011;24661;53.566;9.910;2023-04-03T15:23:18;3.37;;;1.07;;
38901;SDS011;24661;53.566;9.910;2023-04-03T15:25:44;3.43;;;1.50;;
38901;SDS011;24661;53.566;9.910;2023-04-03T15:28:46;3.57;;;1.40;;
38901;SDS011;24661;53.566;9.910;2023-04-03T15:31:05;5.97;;;1.60;;
38901;SDS011;24661;53.566;9.910;2023-04-03T15:33:35;5.23;;;1.33;;
38901;SDS011;24661;53.566;9.910;2023-04-03T15:36:01;2.80;;;1.10;;
38901;SDS011;24661;53.566;9.910;2023-04-03T15:38:28;2.27;;;1.00;;
38901;SDS011;24661;53.566;9.910;2023-04-03T15:40:54;3.00;;;2.13;;
38901;SDS011;24661;53.566;9.910;2023-04-03T15:43:20;4.10;;;2.03;;
38901;SDS011;24661;53.566;9.910;2023-04-03T15:45:46;2.67;;;1.10;;
38901;SDS011;24661;53.566;9.910;2023-04-03T15:48:12;4.13;;;1.20;;
38901;SDS011;24661;53.566;9.910;2023-04-03T15:50:38;2.90;;;1.20;;
38901;SDS011;24661;53.566;9.910;2023-04-03T15:53:04;3.57;;;1.13;;
38901;SDS011;24661;53.566;9.910;2023-04-03T15:55:31;3.70;;;1.47;;
38901;SDS011;24661;53.566;9.910;2023-04-03T15:57:59;6.07;;;1.47;;
38901;SDS011;24661;53.566;9.910;2023-04-03T16:00:26;2.73;;;1.20;;
38901;SDS011;24661;53.566;9.910;2023-04-03T16:02:55;3.80;;;1.47;;
38901;SDS011;24661;53.566;9.910;2023-04-03T16:05:26;2.07;;;1.10;;
38901;SDS011;24661;53.566;9.910;2023-04-03T16:07:52;6.33;;;1.30;;
38901;SDS011;24661;53.566;9.910;2023-04-03T16:10:19;3.73;;;1.20;;
38901;SDS011;24661;53.566;9.910;2023-04-03T16:12:45;5.37;;;3.63;;
38901;SDS011;24661;53.566;9.910;2023-04-03T16:15:11;4.57;;;1.93;;
38901;SDS011;24661;53.566;9.910;2023-04-03T16:17:37;4.50;;;1.60;;
38901;SDS011;24661;53.566;9.910;2023-04-03T16:20:04;5.63;;;1.60;;
38901;SDS011;24661;53.566;9.910;2023-04-03T16:22:32;2.27;;;1.30;;
38901;SDS011;24661;53.566;9.910;2023-04-03T16:24:58;5.47;;;1.60;;
38901;SDS011;24661;53.566;9.910;2023-04-03T16:27:24;2.77;;;1.60;;
38901;SDS011;24661;53.566;9.910;2023-04-03T16:29:53;2.77;;;1.70;;
38901;SDS011;24661;53.566;9.910;2023-04-03T16:32:20;7.27;;;3.13;;
38901;SDS011;24661;53.566;9.910;2023-04-03T16:34:46;4.03;;;2.10;;
38901;SDS011;24661;53.566;9.910;2023-04-03T16:37:13;3.83;;;2.13;;